Time;durP1;ratioP1;P1;durP2;ratioP2;P2;SDS_P1;SDS_P2;PMS_P1;PMS_P2;Temp;Humidity;BMP_temperature;BMP_pressure;BME280_temperature;BME280_humidity;BME280_pressure;Samples;Min_cycle;Max_cycle;Signal;HPM_P1;HPM_P2
2022/10/21 00:00:05;;;;;;;13.53;9.43;;;;;;;;;;5029239;28;20438;-77
2022/10/21 00:02:31;;;;;;;11.30;10.03;;;;;;;;;;5044471;28;20495;-78
2022/10/21 00:04:57;;;;;;;12.03;10.87;;;;;;;;;;5038063;28;20884;-77
2022/10/21 00:07:23;;;;;;;12.17;10.97;;;;;;;;;;5025757;28;20430;-77
2022/10/21 00:09:49;;;;;;;12.93;10.00;;;;;;;;;;5034470;28;20432;-77
2022/10/21 00:12:15;;;;;;;12.30;10.23;;;;;;;;;;5025755;28;20434;-78
2022/10/21 00:14:41;;;;;;;12.47;10.60;;;;;;;;;;5027750;28;20442;-77
2022/10/21 00:17:07;;;;;;;11.50;9.77;;;;;;;;;;5043001;28;20473;-78
2022/10/21 00:19:33;;;;;;;16.57;9.90;;;;;;;;;;5033426;28;20434;-78
2022/10/21 00:21:59;;;;;;;13.17;11.27;;;;;;;;;;5025165;28;20492;-77
2022/10/21 00:24:25;;;;;;;31.37;9.40;;;;;;;;;;5029888;28;20936;-78
2022/10/21 00:26:53;;;;;;;9.67;8.60;;;;;;;;;;5044294;28;20465;-77
2022/10/21 00:29:19;;;;;;;9.07;8.30;;;;;;;;;;5021920;28;20443;-77
2022/10/21 00:31:45;;;;;;;10.40;9.37;;;;;;;;;;5044472;28;20466;-77
2022/10/21 00:34:11;;;;;;;12.00;9.40;;;;;;;;;;5021468;28;20520;-79
2022/10/21 00:36:37;;;;;;;9.37;8.47;;;;;;;;;;5044511;28;20469;-78
2022/10/21 00:39:03;;;;;;;8.73;7.07;;;;;;;;;;5022027;28;20812;-79
2022/10/21 00:41:29;;;;;;;9.00;8.30;;;;;;;;;;5024938;28;20418;-77
2022/10/21 00:44:00;;;;;;;8.30;7.63;;;;;;;;;;5040879;28;20441;-78
2022/10/21 00:46:29;;;;;;;8.83;7.93;;;;;;;;;;5042377;28;20414;-77
2022/10/21 00:48:57;;;;;;;9.77;8.83;;;;;;;;;;5022187;28;20620;-78
2022/10/21 00:51:23;;;;;;;7.30;6.57;;;;;;;;;;5024897;28;20901;-78
2022/10/21 00:53:52;;;;;;;7.80;7.20;;;;;;;;;;5040562;28;20461;-78
2022/10/21 00:56:29;;;;;;;7.60;7.10;;;;;;;;;;5044429;28;20473;-78
2022/10/21 00:58:57;;;;;;;8.60;7.50;;;;;;;;;;5021430;28;20986;-78
2022/10/21 01:01:23;;;;;;;11.93;7.07;;;;;;;;;;5024993;28;20406;-78
2022/10/21 01:03:50;;;;;;;11.77;8.63;;;;;;;;;;5036226;28;20441;-77
2022/10/21 01:06:18;;;;;;;36.63;8.50;;;;;;;;;;5024490;28;20521;-77
2022/10/21 01:08:44;;;;;;;10.90;8.80;;;;;;;;;;5036933;28;20976;-78
2022/10/21 01:11:12;;;;;;;8.37;7.53;;;;;;;;;;5024654;28;20946;-77
2022/10/21 01:13:50;;;;;;;10.33;8.47;;;;;;;;;;5038313;28;20871;-79
2022/10/21 01:16:35;;;;;;;9.03;8.23;;;;;;;;;;5024774;28;20453;-77
2022/10/21 01:19:13;;;;;;;9.50;8.07;;;;;;;;;;5040184;28;20433;-77
2022/10/21 01:21:39;;;;;;;12.20;8.00;;;;;;;;;;5025413;28;20936;-77
2022/10/21 01:24:23;;;;;;;10.97;8.43;;;;;;;;;;5040390;28;20437;-78
2022/10/21 01:27:08;;;;;;;8.60;7.87;;;;;;;;;;5024963;28;20429;-77
2022/10/21 01:29:49;;;;;;;11.13;9.20;;;;;;;;;;5040056;28;20792;-77
2022/10/21 01:32:18;;;;;;;10.23;9.00;;;;;;;;;;5026588;28;20426;-77
2022/10/21 01:35:07;;;;;;;9.70;8.33;;;;;;;;;;5034959;28;20434;-77
2022/10/21 01:37:40;;;;;;;10.93;9.57;;;;;;;;;;5018611;28;20491;-77
2022/10/21 01:40:13;;;;;;;9.53;8.40;;;;;;;;;;5039070;28;20437;-77
2022/10/21 01:42:43;;;;;;;8.57;7.80;;;;;;;;;;5026437;28;20954;-76
2022/10/21 01:45:20;;;;;;;7.30;6.80;;;;;;;;;;5040005;28;20442;-77
2022/10/21 01:47:47;;;;;;;8.07;7.27;;;;;;;;;;5026497;28;20487;-78
2022/10/21 01:50:16;;;;;;;9.80;7.70;;;;;;;;;;5028381;28;20438;-78
2022/10/21 01:52:44;;;;;;;8.97;8.20;;;;;;;;;;5047184;28;20637;-78
2022/10/21 01:55:14;;;;;;;8.53;7.70;;;;;;;;;;5032231;28;20555;-78
2022/10/21 01:57:42;;;;;;;6.90;6.37;;;;;;;;;;5027638;28;20411;-78
2022/10/21 02:00:08;;;;;;;6.80;6.50;;;;;;;;;;5029247;28;20450;-78
2022/10/21 02:02:37;;;;;;;6.83;5.80;;;;;;;;;;5047409;28;20468;-78
2022/10/21 02:05:07;;;;;;;6.77;6.37;;;;;;;;;;5037228;28;20442;-78
2022/10/21 02:07:33;;;;;;;5.17;4.73;;;;;;;;;;5027708;28;20434;-78
2022/10/21 02:09:59;;;;;;;5.80;5.40;;;;;;;;;;5030858;28;20438;-78
2022/10/21 02:12:25;;;;;;;5.93;5.30;;;;;;;;;;5046520;28;20429;-77
2022/10/21 02:14:52;;;;;;;15.67;5.10;;;;;;;;;;5036302;28;21013;-79
2022/10/21 02:17:19;;;;;;;4.73;4.40;;;;;;;;;;5027495;28;20508;-78
2022/10/21 02:19:45;;;;;;;4.70;4.40;;;;;;;;;;5042894;28;20457;-77
2022/10/21 02:22:12;;;;;;;3.80;3.70;;;;;;;;;;5027687;28;20434;-77
2022/10/21 02:24:42;;;;;;;4.63;4.37;;;;;;;;;;5043168;28;20430;-77
2022/10/21 02:27:08;;;;;;;4.30;4.10;;;;;;;;;;5027028;28;20426;-79
2022/10/21 02:29:38;;;;;;;4.30;2.97;;;;;;;;;;5034414;28;20462;-78
2022/10/21 02:32:19;;;;;;;4.30;4.17;;;;;;;;;;5047008;28;20448;-76
2022/10/21 02:35:11;;;;;;;11.13;3.57;;;;;;;;;;5023230;28;20948;-78
2022/10/21 02:37:57;;;;;;;3.83;3.50;;;;;;;;;;5024187;28;20466;-77
2022/10/21 02:40:26;;;;;;;3.40;3.30;;;;;;;;;;5038593;28;20504;-78
2022/10/21 02:43:02;;;;;;;3.43;3.20;;;;;;;;;;5024673;28;20559;-78
2022/10/21 02:45:28;;;;;;;3.40;3.30;;;;;;;;;;5024759;28;20473;-78
2022/10/21 02:47:54;;;;;;;3.63;3.53;;;;;;;;;;5045881;28;20414;-78
2022/10/21 02:50:20;;;;;;;3.30;3.20;;;;;;;;;;5038177;28;20931;-78
2022/10/21 02:52:46;;;;;;;3.30;3.27;;;;;;;;;;5026622;28;20505;-78
2022/10/21 02:55:12;;;;;;;3.60;3.30;;;;;;;;;;5042273;28;20483;-78
2022/10/21 02:57:38;;;;;;;2.77;2.67;;;;;;;;;;5026947;28;20922;-78
2022/10/21 03:00:05;;;;;;;3.13;3.03;;;;;;;;;;5030629;28;20457;-77
2022/10/21 03:02:32;;;;;;;3.90;3.60;;;;;;;;;;5045178;28;20440;-78
2022/10/21 03:04:58;;;;;;;3.20;3.10;;;;;;;;;;5023977;28;20443;-78
2022/10/21 03:07:24;;;;;;;3.87;3.67;;;;;;;;;;5046107;28;20416;-76
2022/10/21 03:09:50;;;;;;;3.40;3.23;;;;;;;;;;5033458;28;20465;-76
2022/10/21 03:12:16;;;;;;;3.87;3.30;;;;;;;;;;5025966;28;20932;-76
2022/10/21 03:14:42;;;;;;;3.90;3.70;;;;;;;;;;5041524;28;20465;-78
2022/10/21 03:17:08;;;;;;;3.47;3.27;;;;;;;;;;5025283;28;20458;-76
2022/10/21 03:19:34;;;;;;;3.43;3.10;;;;;;;;;;5040821;28;20505;-77
2022/10/21 03:22:00;;;;;;;4.10;3.90;;;;;;;;;;5047226;28;20552;-76
2022/10/21 03:24:26;;;;;;;6.40;3.07;;;;;;;;;;5023065;28;20831;-77
2022/10/21 03:26:52;;;;;;;3.17;3.07;;;;;;;;;;5026082;28;20419;-76
2022/10/21 03:29:18;;;;;;;2.87;2.77;;;;;;;;;;5041523;28;20495;-77
2022/10/21 03:31:44;;;;;;;3.23;3.00;;;;;;;;;;5044268;28;20863;-77
2022/10/21 03:34:10;;;;;;;5.17;4.87;;;;;;;;;;5022354;28;20525;-78
2022/10/21 03:36:36;;;;;;;3.20;3.00;;;;;;;;;;5026230;28;20826;-76
2022/10/21 03:39:02;;;;;;;3.70;3.40;;;;;;;;;;5040232;28;20434;-76
2022/10/21 03:41:28;;;;;;;3.30;3.20;;;;;;;;;;5045259;28;20404;-76
2022/10/21 03:43:54;;;;;;;6.33;3.27;;;;;;;;;;5023862;28;20716;-77
2022/10/21 03:46:20;;;;;;;3.60;3.50;;;;;;;;;;5040795;28;20409;-76
2022/10/21 03:48:46;;;;;;;3.00;2.90;;;;;;;;;;5024413;28;20613;-76
2022/10/21 03:51:12;;;;;;;6.60;6.23;;;;;;;;;;5032207;28;21097;-76
2022/10/21 03:53:38;;;;;;;3.83;3.43;;;;;;;;;;5044436;28;20958;-76
2022/10/21 03:56:05;;;;;;;3.53;3.23;;;;;;;;;;5041339;28;20982;-76
2022/10/21 03:58:34;;;;;;;4.10;3.17;;;;;;;;;;5025651;28;20434;-76
2022/10/21 04:01:00;;;;;;;2.93;2.83;;;;;;;;;;5041626;28;20444;-77
2022/10/21 04:03:26;;;;;;;2.73;2.60;;;;;;;;;;5023724;28;20474;-77
2022/10/21 04:05:52;;;;;;;4.50;4.20;;;;;;;;;;5032654;28;20507;-77
2022/10/21 04:08:18;;;;;;;6.00;2.37;;;;;;;;;;5025345;28;20434;-77
2022/10/21 04:10:45;;;;;;;3.23;2.93;;;;;;;;;;5040636;28;20507;-77
2022/10/21 04:13:11;;;;;;;2.77;2.77;;;;;;;;;;5024798;28;20433;-77
2022/10/21 04:15:37;;;;;;;2.67;2.53;;;;;;;;;;5041067;28;20464;-76
2022/10/21 04:18:05;;;;;;;2.47;2.37;;;;;;;;;;5025677;28;20429;-78
2022/10/21 04:20:30;;;;;;;4.40;2.70;;;;;;;;;;5027422;28;20464;-78
2022/10/21 04:22:57;;;;;;;4.97;3.63;;;;;;;;;;5043890;28;21031;-79
2022/10/21 04:25:23;;;;;;;2.87;2.60;;;;;;;;;;5027260;28;20964;-78
2022/10/21 04:27:49;;;;;;;3.07;2.77;;;;;;;;;;5025233;28;20418;-78
2022/10/21 04:30:15;;;;;;;4.70;4.20;;;;;;;;;;5029842;28;20530;-77
2022/10/21 04:32:41;;;;;;;3.53;3.23;;;;;;;;;;5039531;28;20456;-76
2022/10/21 04:35:08;;;;;;;3.30;2.93;;;;;;;;;;5034790;28;20473;-78
2022/10/21 04:37:34;;;;;;;4.27;2.90;;;;;;;;;;5024396;28;21026;-77
2022/10/21 04:40:00;;;;;;;6.27;2.97;;;;;;;;;;5031061;28;20516;-76
2022/10/21 04:42:26;;;;;;;2.50;2.50;;;;;;;;;;5043297;28;20434;-77
2022/10/21 04:44:52;;;;;;;2.93;2.73;;;;;;;;;;5026650;28;21012;-77
2022/10/21 04:47:18;;;;;;;2.90;2.90;;;;;;;;;;5044919;28;20398;-77
2022/10/21 04:49:44;;;;;;;4.53;3.17;;;;;;;;;;5028011;28;20507;-78
2022/10/21 04:52:10;;;;;;;3.70;2.57;;;;;;;;;;5043997;28;20446;-76
2022/10/21 04:54:36;;;;;;;3.60;3.47;;;;;;;;;;5021640;28;20434;-78
2022/10/21 04:57:02;;;;;;;3.10;2.90;;;;;;;;;;5024611;28;20477;-77
2022/10/21 04:59:28;;;;;;;3.30;3.10;;;;;;;;;;5040094;28;20457;-77
2022/10/21 05:01:54;;;;;;;3.07;2.13;;;;;;;;;;5044582;28;20393;-78
2022/10/21 05:04:20;;;;;;;4.63;2.97;;;;;;;;;;5024190;28;20422;-77
2022/10/21 05:06:46;;;;;;;2.83;2.67;;;;;;;;;;5046188;28;20519;-78
2022/10/21 05:09:12;;;;;;;4.60;2.60;;;;;;;;;;5024702;28;20460;-78
2022/10/21 05:11:38;;;;;;;2.83;2.70;;;;;;;;;;5028463;28;20970;-77
2022/10/21 05:14:05;;;;;;;3.87;3.50;;;;;;;;;;5046209;28;20425;-78
2022/10/21 05:16:31;;;;;;;3.13;3.03;;;;;;;;;;5029246;28;20470;-76
2022/10/21 05:18:58;;;;;;;3.93;2.80;;;;;;;;;;5050428;28;20421;-78
2022/10/21 05:21:24;;;;;;;3.03;2.90;;;;;;;;;;5042827;28;20433;-77
2022/10/21 05:23:50;;;;;;;2.90;2.70;;;;;;;;;;5028624;28;20437;-77
2022/10/21 05:26:16;;;;;;;3.37;2.53;;;;;;;;;;5043328;28;21046;-78
2022/10/21 05:28:42;;;;;;;6.93;6.43;;;;;;;;;;5028179;28;20480;-76
2022/10/21 05:31:08;;;;;;;4.03;3.83;;;;;;;;;;5026445;28;20537;-75
2022/10/21 05:33:34;;;;;;;3.53;3.37;;;;;;;;;;5046894;28;20480;-77
2022/10/21 05:36:03;;;;;;;5.80;3.17;;;;;;;;;;5040063;28;20461;-76
2022/10/21 05:38:30;;;;;;;10.97;6.13;;;;;;;;;;5027202;28;20434;-77
2022/10/21 05:40:57;;;;;;;3.07;2.90;;;;;;;;;;5042953;28;20441;-78
2022/10/21 05:43:23;;;;;;;3.60;3.40;;;;;;;;;;5031625;28;21031;-78
2022/10/21 05:45:49;;;;;;;6.83;3.50;;;;;;;;;;5041847;28;20446;-77
2022/10/21 05:48:18;;;;;;;3.60;3.30;;;;;;;;;;5027575;28;20844;-78
2022/10/21 05:50:45;;;;;;;3.23;3.13;;;;;;;;;;5028985;28;20699;-78
2022/10/21 05:53:11;;;;;;;8.70;3.20;;;;;;;;;;4337822;28;10000752;-77
2022/10/21 05:55:37;;;;;;;5.30;4.80;;;;;;;;;;5025946;28;20230;-77
2022/10/21 05:58:03;;;;;;;4.43;4.30;;;;;;;;;;5040139;28;20500;-79
2022/10/21 06:00:29;;;;;;;4.73;4.43;;;;;;;;;;5027481;28;20472;-77
2022/10/21 06:02:55;;;;;;;4.30;3.90;;;;;;;;;;5034253;28;20796;-76
2022/10/21 06:05:22;;;;;;;2.80;2.60;;;;;;;;;;5028111;28;20477;-77
2022/10/21 06:07:48;;;;;;;6.93;4.17;;;;;;;;;;5034861;28;20563;-77
2022/10/21 06:10:15;;;;;;;4.63;4.23;;;;;;;;;;5027202;28;20539;-78
2022/10/21 06:12:42;;;;;;;4.03;3.73;;;;;;;;;;5033033;28;20540;-78
2022/10/21 06:15:08;;;;;;;3.90;3.70;;;;;;;;;;5028663;28;20454;-77
2022/10/21 06:17:34;;;;;;;4.30;4.00;;;;;;;;;;5037438;28;20483;-78
2022/10/21 06:20:00;;;;;;;4.77;4.30;;;;;;;;;;5032841;28;20515;-77
2022/10/21 06:22:27;;;;;;;4.57;4.27;;;;;;;;;;5042794;28;20425;-77
2022/10/21 06:24:53;;;;;;;15.50;5.50;;;;;;;;;;5026396;28;20477;-76
2022/10/21 06:27:19;;;;;;;4.20;3.93;;;;;;;;;;5039829;28;20610;-77
2022/10/21 06:29:45;;;;;;;4.17;3.97;;;;;;;;;;5033508;28;20437;-78
2022/10/21 06:32:11;;;;;;;3.67;3.43;;;;;;;;;;5034627;28;20406;-78
2022/10/21 06:34:38;;;;;;;3.57;3.47;;;;;;;;;;5028560;28;20457;-77
2022/10/21 06:37:04;;;;;;;4.27;3.97;;;;;;;;;;5037369;28;20465;-75
2022/10/21 06:39:30;;;;;;;4.13;3.90;;;;;;;;;;5031395;28;20643;-78
2022/10/21 06:41:56;;;;;;;3.83;3.63;;;;;;;;;;5041223;28;20425;-76
2022/10/21 06:44:22;;;;;;;5.23;4.83;;;;;;;;;;5030612;28;20427;-78
2022/10/21 06:46:48;;;;;;;7.30;3.23;;;;;;;;;;5046450;28;20440;-77
2022/10/21 06:49:14;;;;;;;4.00;3.90;;;;;;;;;;5034743;28;20598;-77
2022/10/21 06:51:40;;;;;;;3.70;3.50;;;;;;;;;;5030554;28;20458;-77
2022/10/21 06:54:06;;;;;;;14.47;5.20;;;;;;;;;;5033638;28;20928;-79
2022/10/21 06:56:32;;;;;;;17.00;7.30;;;;;;;;;;5031200;28;20469;-77
2022/10/21 06:58:59;;;;;;;6.00;3.70;;;;;;;;;;5050455;28;20444;-77
2022/10/21 07:01:26;;;;;;;7.33;4.07;;;;;;;;;;5031638;28;20437;-78
2022/10/21 07:03:52;;;;;;;4.33;3.97;;;;;;;;;;5033311;28;20486;-77
2022/10/21 07:06:18;;;;;;;3.37;3.20;;;;;;;;;;5029964;28;20446;-78
2022/10/21 07:08:45;;;;;;;5.10;2.93;;;;;;;;;;5033544;28;20426;-77
2022/10/21 07:11:12;;;;;;;3.53;2.80;;;;;;;;;;5025303;28;20453;-78
2022/10/21 07:13:38;;;;;;;3.87;3.57;;;;;;;;;;5040862;28;20832;-77
2022/10/21 07:16:08;;;;;;;12.33;3.60;;;;;;;;;;5024192;28;20557;-78
2022/10/21 07:18:34;;;;;;;7.60;3.20;;;;;;;;;;5038474;28;20449;-77
2022/10/21 07:21:04;;;;;;;4.30;3.40;;;;;;;;;;5029939;28;20450;-77
2022/10/21 07:23:30;;;;;;;2.80;2.70;;;;;;;;;;5037135;28;20819;-77
2022/10/21 07:25:56;;;;;;;6.83;4.20;;;;;;;;;;5024359;28;20454;-77
2022/10/21 07:28:22;;;;;;;3.50;3.40;;;;;;;;;;5033497;28;20433;-77
2022/10/21 07:30:48;;;;;;;3.97;3.70;;;;;;;;;;5034438;28;20457;-78
2022/10/21 07:33:15;;;;;;;3.93;3.47;;;;;;;;;;5028542;28;20518;-78
2022/10/21 07:35:41;;;;;;;3.33;3.23;;;;;;;;;;5034207;28;20481;-77
2022/10/21 07:38:07;;;;;;;3.27;3.23;;;;;;;;;;5028262;28;20441;-78
2022/10/21 07:40:38;;;;;;;3.47;3.27;;;;;;;;;;5026401;28;20791;-78
2022/10/21 07:43:04;;;;;;;3.47;3.37;;;;;;;;;;5029503;28;20504;-78
2022/10/21 07:45:30;;;;;;;2.40;2.40;;;;;;;;;;5022904;28;20442;-77
2022/10/21 07:47:56;;;;;;;3.43;3.20;;;;;;;;;;5039758;28;20422;-77
2022/10/21 07:50:22;;;;;;;3.73;3.53;;;;;;;;;;5025640;28;20434;-77
2022/10/21 07:52:48;;;;;;;2.80;2.70;;;;;;;;;;5029834;28;20806;-77
2022/10/21 07:55:15;;;;;;;3.37;3.30;;;;;;;;;;5030950;28;20466;-78
2022/10/21 07:57:42;;;;;;;4.07;3.87;;;;;;;;;;5036602;28;20422;-78
2022/10/21 08:00:08;;;;;;;4.33;3.13;;;;;;;;;;5032214;28;20447;-78
2022/10/21 08:02:34;;;;;;;5.90;3.67;;;;;;;;;;5029708;28;20860;-79
2022/10/21 08:05:00;;;;;;;3.43;3.20;;;;;;;;;;5038833;28;21561;-80
2022/10/21 08:07:26;;;;;;;3.50;3.40;;;;;;;;;;5044788;28;20437;-78
2022/10/21 08:09:52;;;;;;;4.07;3.20;;;;;;;;;;5021842;28;20434;-78
2022/10/21 08:12:18;;;;;;;7.03;3.60;;;;;;;;;;5025267;28;20402;-77
2022/10/21 08:14:44;;;;;;;6.37;4.07;;;;;;;;;;5040069;28;20464;-75
2022/10/21 08:17:11;;;;;;;4.10;3.73;;;;;;;;;;5044807;28;20449;-77
2022/10/21 08:19:37;;;;;;;3.20;3.10;;;;;;;;;;5025574;28;20931;-77
2022/10/21 08:22:03;;;;;;;4.47;4.07;;;;;;;;;;5021588;28;20820;-77
2022/10/21 08:24:29;;;;;;;7.97;3.53;;;;;;;;;;5044018;28;20472;-77
2022/10/21 08:26:55;;;;;;;6.10;3.33;;;;;;;;;;5039597;28;20472;-78
2022/10/21 08:29:21;;;;;;;5.33;3.30;;;;;;;;;;5025335;28;20433;-79
2022/10/21 08:31:47;;;;;;;3.47;3.23;;;;;;;;;;5023633;28;20789;-78
2022/10/21 08:34:13;;;;;;;4.50;3.90;;;;;;;;;;5048985;28;20502;-78
2022/10/21 08:36:39;;;;;;;3.90;3.60;;;;;;;;;;5041671;28;20510;-78
2022/10/21 08:39:06;;;;;;;4.27;4.00;;;;;;;;;;5025328;28;20990;-78
2022/10/21 08:41:48;;;;;;;4.17;4.07;;;;;;;;;;5025916;28;20529;-78
2022/10/21 08:44:14;;;;;;;5.10;4.90;;;;;;;;;;5026823;28;20528;-77
2022/10/21 08:46:43;;;;;;;4.83;4.63;;;;;;;;;;5044747;28;20438;-77
2022/10/21 08:49:28;;;;;;;4.20;3.80;;;;;;;;;;5028650;28;20438;-78
2022/10/21 08:52:11;;;;;;;3.73;3.57;;;;;;;;;;5042571;28;20433;-78
2022/10/21 08:54:50;;;;;;;6.27;5.03;;;;;;;;;;5029983;28;20453;-77
2022/10/21 08:57:16;;;;;;;5.80;5.43;;;;;;;;;;5027051;28;20832;-77
2022/10/21 08:59:43;;;;;;;9.05;4.40;;;;;;;;;;4679855;28;10000517;-75
2022/10/21 09:02:12;;;;;;;5.73;5.23;;;;;;;;;;5032986;28;20207;-79
2022/10/21 09:04:44;;;;;;;5.70;5.23;;;;;;;;;;5043910;28;20432;-78
2022/10/21 09:07:13;;;;;;;4.97;4.53;;;;;;;;;;5033045;28;20445;-78
2022/10/21 09:09:46;;;;;;;5.43;5.03;;;;;;;;;;5043357;28;20432;-76
2022/10/21 09:12:15;;;;;;;6.03;5.50;;;;;;;;;;5028926;28;20445;-78
2022/10/21 09:14:45;;;;;;;5.43;5.03;;;;;;;;;;5040429;28;20417;-78
2022/10/21 09:17:17;;;;;;;4.70;4.50;;;;;;;;;;5042221;28;20492;-79
2022/10/21 09:19:43;;;;;;;4.50;4.10;;;;;;;;;;5067976;28;20478;-78
2022/10/21 09:22:28;;;;;;;5.00;4.57;;;;;;;;;;5048543;28;20718;-78
2022/10/21 09:24:59;;;;;;;6.37;5.83;;;;;;;;;;5047309;28;20432;-77
2022/10/21 09:27:25;;;;;;;10.17;5.53;;;;;;;;;;5047882;28;20417;-78
2022/10/21 09:29:59;;;;;;;6.53;5.00;;;;;;;;;;5029567;28;20419;-77
2022/10/21 09:32:28;;;;;;;5.03;4.63;;;;;;;;;;5050422;28;20406;-77
2022/10/21 09:35:05;;;;;;;9.13;4.37;;;;;;;;;;5059020;28;20413;-79
2022/10/21 09:37:41;;;;;;;4.80;4.40;;;;;;;;;;5027460;28;20505;-77
2022/10/21 09:40:27;;;;;;;10.00;5.80;;;;;;;;;;5042403;28;20495;-78
2022/10/21 09:42:54;;;;;;;4.43;4.17;;;;;;;;;;4696790;28;10000502;-78
2022/10/21 09:45:20;;;;;;;6.20;4.87;;;;;;;;;;5029769;28;20434;-77
2022/10/21 09:47:50;;;;;;;5.00;4.60;;;;;;;;;;5042076;28;20406;-78
2022/10/21 09:50:16;;;;;;;5.00;4.57;;;;;;;;;;5031949;28;20441;-77
2022/10/21 09:52:46;;;;;;;5.83;4.00;;;;;;;;;;5035183;28;20417;-79
2022/10/21 09:55:13;;;;;;;4.93;4.60;;;;;;;;;;5037945;28;20473;-79
2022/10/21 09:57:51;;;;;;;4.03;3.73;;;;;;;;;;5035816;28;20570;-77
2022/10/21 10:00:17;;;;;;;3.50;3.27;;;;;;;;;;5037544;28;20422;-79
2022/10/21 10:02:44;;;;;;;3.63;3.43;;;;;;;;;;5037541;28;20681;-78
2022/10/21 10:05:29;;;;;;;7.10;3.27;;;;;;;;;;5031410;28;20425;-80
2022/10/21 10:07:55;;;;;;;4.67;4.27;;;;;;;;;;5037284;28;20453;-78
2022/10/21 10:10:29;;;;;;;3.50;3.17;;;;;;;;;;5032602;28;20429;-77
2022/10/21 10:12:57;;;;;;;5.03;3.53;;;;;;;;;;5044283;28;20409;-78
2022/10/21 10:15:24;;;;;;;3.47;3.10;;;;;;;;;;5042347;28;20458;-76
2022/10/21 10:17:56;;;;;;;5.60;3.90;;;;;;;;;;5063814;28;20849;-76
2022/10/21 10:20:22;;;;;;;4.53;3.70;;;;;;;;;;5023231;28;20563;-77
2022/10/21 10:23:00;;;;;;;5.00;4.63;;;;;;;;;;5027518;28;20783;-79
2022/10/21 10:25:32;;;;;;;5.00;4.37;;;;;;;;;;5042202;28;25890;-77
2022/10/21 10:28:01;;;;;;;3.93;3.77;;;;;;;;;;5047775;28;20410;-77
2022/10/21 10:30:35;;;;;;;5.63;5.17;;;;;;;;;;5040738;28;21030;-79
2022/10/21 10:33:06;;;;;;;3.90;3.70;;;;;;;;;;5027031;28;20778;-78
2022/10/21 10:35:33;;;;;;;3.90;3.60;;;;;;;;;;5043266;28;21191;-78
2022/10/21 10:38:01;;;;;;;7.17;4.07;;;;;;;;;;5045373;28;20424;-79
2022/10/21 10:40:40;;;;;;;3.93;3.70;;;;;;;;;;5023059;28;20426;-79
2022/10/21 10:43:21;;;;;;;4.00;3.70;;;;;;;;;;5027352;28;20399;-79
2022/10/21 10:45:57;;;;;;;4.70;4.43;;;;;;;;;;5036647;28;20871;-78
2022/10/21 10:48:43;;;;;;;4.70;3.47;;;;;;;;;;5046035;28;20492;-79
2022/10/21 10:51:29;;;;;;;5.87;2.53;;;;;;;;;;5022706;28;20439;-78
2022/10/21 10:54:15;;;;;;;3.30;3.20;;;;;;;;;;5044225;28;20468;-77
2022/10/21 10:57:04;;;;;;;4.13;3.60;;;;;;;;;;5034691;28;20490;-78
2022/10/21 10:59:30;;;;;;;3.97;3.73;;;;;;;;;;5018915;28;20489;-77
2022/10/21 11:02:04;;;;;;;3.80;3.60;;;;;;;;;;5027474;28;20442;-78
2022/10/21 11:04:30;;;;;;;5.43;3.70;;;;;;;;;;5045930;28;20438;-79
2022/10/21 11:06:59;;;;;;;4.23;3.77;;;;;;;;;;5027732;28;20442;-80
2022/10/21 11:09:25;;;;;;;4.10;3.70;;;;;;;;;;4689148;28;10000399;-80
2022/10/21 11:11:54;;;;;;;4.57;3.57;;;;;;;;;;5028402;28;20231;-79
2022/10/21 11:14:20;;;;;;;4.13;2.70;;;;;;;;;;5043673;28;20651;-80
2022/10/21 11:16:49;;;;;;;2.93;2.83;;;;;;;;;;5033866;28;20473;-80
2022/10/21 11:19:24;;;;;;;7.73;3.70;;;;;;;;;;5024049;28;20954;-81
2022/10/21 11:22:05;;;;;;;2.97;2.77;;;;;;;;;;5034589;28;20927;-79
2022/10/21 11:24:39;;;;;;;3.47;3.37;;;;;;;;;;5024972;28;20978;-79
2022/10/21 11:27:11;;;;;;;3.90;3.47;;;;;;;;;;5026822;28;20438;-79
2022/10/21 11:29:49;;;;;;;3.37;3.17;;;;;;;;;;5044641;28;20639;-79
2022/10/21 11:32:21;;;;;;;4.53;3.33;;;;;;;;;;5037434;28;20532;-78
2022/10/21 11:34:56;;;;;;;4.07;3.70;;;;;;;;;;5026053;28;20427;-80
2022/10/21 11:37:22;;;;;;;4.87;3.10;;;;;;;;;;5038312;28;20464;-79
2022/10/21 11:39:54;;;;;;;3.33;2.93;;;;;;;;;;5025847;28;20794;-79
2022/10/21 11:42:30;;;;;;;3.47;3.27;;;;;;;;;;5037395;28;20445;-77
2022/10/21 11:45:02;;;;;;;10.80;4.47;;;;;;;;;;5021101;28;20572;-78
2022/10/21 11:47:47;;;;;;;3.93;3.00;;;;;;;;;;5023785;28;20768;-77
2022/10/21 11:50:20;;;;;;;3.30;3.00;;;;;;;;;;5045638;28;20447;-78
2022/10/21 11:52:58;;;;;;;3.40;2.80;;;;;;;;;;5041778;28;20437;-78
2022/10/21 11:55:43;;;;;;;3.80;3.60;;;;;;;;;;5032950;28;20872;-77
2022/10/21 11:58:15;;;;;;;2.40;2.40;;;;;;;;;;5045302;28;20463;-78
2022/10/21 12:01:02;;;;;;;2.93;2.70;;;;;;;;;;5021808;28;20419;-76
2022/10/21 12:03:37;;;;;;;2.50;2.40;;;;;;;;;;5024670;28;20417;-79
2022/10/21 12:06:11;;;;;;;2.87;2.40;;;;;;;;;;5041188;28;20528;-81
2022/10/21 12:08:50;;;;;;;2.30;2.30;;;;;;;;;;5046928;28;20405;-79
2022/10/21 12:11:20;;;;;;;2.27;2.27;;;;;;;;;;5023759;28;20426;-79
2022/10/21 12:13:51;;;;;;;2.70;2.07;;;;;;;;;;5028479;28;20399;-79
2022/10/21 12:16:19;;;;;;;2.50;2.43;;;;;;;;;;5041887;28;20472;-79
2022/10/21 12:18:53;;;;;;;1.80;1.80;;;;;;;;;;5046836;28;20491;-79
2022/10/21 12:21:24;;;;;;;2.77;2.50;;;;;;;;;;5028102;28;20567;-78
2022/10/21 12:23:57;;;;;;;6.03;3.10;;;;;;;;;;5046746;28;20904;-77
2022/10/21 12:26:30;;;;;;;1.83;1.73;;;;;;;;;;5029360;28;20495;-78
2022/10/21 12:28:56;;;;;;;2.00;2.00;;;;;;;;;;5045718;28;20969;-79
2022/10/21 12:31:27;;;;;;;2.17;2.10;;;;;;;;;;5023528;28;20443;-81
2022/10/21 12:33:54;;;;;;;2.40;2.30;;;;;;;;;;5028437;28;20887;-81
2022/10/21 12:36:39;;;;;;;1.97;1.97;;;;;;;;;;5042008;28;20582;-77
2022/10/21 12:39:31;;;;;;;2.07;1.97;;;;;;;;;;5046280;28;20409;-78
2022/10/21 12:42:14;;;;;;;1.80;1.80;;;;;;;;;;4668619;28;10000191;-78
2022/10/21 12:44:45;;;;;;;2.07;1.97;;;;;;;;;;5032902;28;20233;-77
2022/10/21 12:47:23;;;;;;;2.90;2.70;;;;;;;;;;5029040;28;20744;-78
2022/10/21 12:50:03;;;;;;;1.77;1.67;;;;;;;;;;5034001;28;20537;-78
2022/10/21 12:52:29;;;;;;;1.73;1.73;;;;;;;;;;5030787;28;20441;-77
2022/10/21 12:54:58;;;;;;;1.80;1.80;;;;;;;;;;5029527;28;20493;-79
2022/10/21 12:57:28;;;;;;;2.10;2.00;;;;;;;;;;5025418;28;20478;-79
2022/10/21 13:00:13;;;;;;;3.67;2.67;;;;;;;;;;5031499;28;20789;-78
2022/10/21 13:02:57;;;;;;;2.57;2.13;;;;;;;;;;5029131;28;20451;-77
2022/10/21 13:05:43;;;;;;;1.53;1.47;;;;;;;;;;5031562;28;20585;-81
2022/10/21 13:08:21;;;;;;;2.10;2.00;;;;;;;;;;5021672;28;20821;-79
2022/10/21 13:11:03;;;;;;;1.40;1.40;;;;;;;;;;5032225;28;20433;-77
2022/10/21 13:13:31;;;;;;;1.93;1.70;;;;;;;;;;5033012;28;20563;-78
2022/10/21 13:15:58;;;;;;;2.03;1.93;;;;;;;;;;5024097;28;20473;-79
2022/10/21 13:18:42;;;;;;;1.47;1.47;;;;;;;;;;5032159;28;20764;-78
2022/10/21 13:21:21;;;;;;;1.73;1.73;;;;;;;;;;5034063;28;20425;-76
2022/10/21 13:23:49;;;;;;;5.17;3.27;;;;;;;;;;5033416;28;20425;-77
2022/10/21 13:26:20;;;;;;;1.83;1.73;;;;;;;;;;5031661;28;20476;-78
2022/10/21 13:28:57;;;;;;;1.70;1.60;;;;;;;;;;5035049;28;20406;-78
2022/10/21 13:31:23;;;;;;;1.53;1.43;;;;;;;;;;5035846;28;20504;-78
2022/10/21 13:33:51;;;;;;;1.77;1.77;;;;;;;;;;5028324;28;20505;-77
2022/10/21 13:36:27;;;;;;;1.40;1.30;;;;;;;;;;5040116;28;20458;-77
2022/10/21 13:38:54;;;;;;;1.90;1.80;;;;;;;;;;5047439;28;20398;-76
2022/10/21 13:41:22;;;;;;;1.57;1.57;;;;;;;;;;5024493;28;20437;-77
2022/10/21 13:44:06;;;;;;;2.97;1.70;;;;;;;;;;5027508;28;20398;-77
2022/10/21 13:46:37;;;;;;;1.90;1.80;;;;;;;;;;5027572;28;20433;-76
2022/10/21 13:49:04;;;;;;;1.80;1.70;;;;;;;;;;5046909;28;20835;-78
2022/10/21 13:51:34;;;;;;;2.30;1.50;;;;;;;;;;5030127;28;20460;-76
2022/10/21 13:54:09;;;;;;;3.67;3.57;;;;;;;;;;5063788;28;20490;-78
2022/10/21 13:56:37;;;;;;;1.73;1.60;;;;;;;;;;5023419;28;20481;-77
2022/10/21 13:59:03;;;;;;;2.00;2.00;;;;;;;;;;5037921;28;20410;-79
2022/10/21 14:01:50;;;;;;;2.30;1.50;;;;;;;;;;5023874;28;21048;-76
2022/10/21 14:04:20;;;;;;;1.63;1.63;;;;;;;;;;5048880;28;20430;-78
2022/10/21 14:06:48;;;;;;;5.53;1.50;;;;;;;;;;5043253;28;20466;-77
2022/10/21 14:09:25;;;;;;;1.57;1.47;;;;;;;;;;5027530;28;20924;-77
2022/10/21 14:11:52;;;;;;;1.63;1.63;;;;;;;;;;5035974;28;20441;-78
2022/10/21 14:14:21;;;;;;;3.13;2.70;;;;;;;;;;5046554;28;20436;-77
2022/10/21 14:16:48;;;;;;;2.53;1.50;;;;;;;;;;5023046;28;20470;-78
2022/10/21 14:19:16;;;;;;;1.50;1.40;;;;;;;;;;5026739;28;20497;-77
2022/10/21 14:21:44;;;;;;;5.70;1.40;;;;;;;;;;5042678;28;20493;-78
2022/10/21 14:24:33;;;;;;;2.17;1.97;;;;;;;;;;5047169;28;20889;-77
2022/10/21 14:27:00;;;;;;;1.10;1.10;;;;;;;;;;5024960;28;20802;-77
2022/10/21 14:29:27;;;;;;;1.37;1.37;;;;;;;;;;5046381;28;20433;-77
2022/10/21 14:31:53;;;;;;;2.90;2.70;;;;;;;;;;5031310;28;20848;-78
2022/10/21 14:34:23;;;;;;;2.03;2.03;;;;;;;;;;5026860;28;20542;-78
2022/10/21 14:37:03;;;;;;;1.80;1.70;;;;;;;;;;5041739;28;20943;-76
2022/10/21 14:39:30;;;;;;;2.67;2.53;;;;;;;;;;5025434;28;20940;-78
2022/10/21 14:42:01;;;;;;;1.13;1.13;;;;;;;;;;5046013;28;20460;-76
2022/10/21 14:44:27;;;;;;;4.20;1.73;;;;;;;;;;5023659;28;20465;-78
2022/10/21 14:46:54;;;;;;;1.70;1.60;;;;;;;;;;5041960;28;20434;-76
2022/10/21 14:49:25;;;;;;;6.63;2.90;;;;;;;;;;5026424;28;20435;-76
2022/10/21 14:51:56;;;;;;;1.70;1.60;;;;;;;;;;5042885;28;20881;-77
2022/10/21 14:54:28;;;;;;;1.80;1.40;;;;;;;;;;5045818;28;20418;-78